createdAt,value
2022-12-11T05:45:15.170Z,998.50
2022-12-11T05:46:17.780Z,998.49
2022-12-11T05:49:12.620Z,998.47
2022-12-11T05:50:13.745Z,998.47
2022-12-11T05:51:13.445Z,998.46
2022-12-11T05:52:23.572Z,998.46
2022-12-11T05:53:13.510Z,998.46
2022-12-11T05:54:13.533Z,998.45
2022-12-11T07:50:42.808Z,998.49
2022-12-11T07:51:43.863Z,998.49
2022-12-11T07:52:43.761Z,998.49
2022-12-11T07:53:43.827Z,998.48
2022-12-11T07:54:43.783Z,998.48
2022-12-11T07:55:43.806Z,998.48
2022-12-11T08:32:12.806Z,998.46
2022-12-11T08:33:13.792Z,998.46
2022-12-11T08:59:18.154Z,998.55
2022-12-11T09:00:30.331Z,998.54
2022-12-11T09:01:19.383Z,998.54
2022-12-11T09:02:20.223Z,998.53
2022-12-11T09:03:19.140Z,998.52
2022-12-11T09:04:19.061Z,998.51
2022-12-11T09:05:20.724Z,998.50
2022-12-11T09:11:05.568Z,998.42
2022-12-11T09:14:58.383Z,998.44
2022-12-11T09:15:59.573Z,998.43
2022-12-11T09:16:59.369Z,998.43
2022-12-11T09:41:17.536Z,998.29
2022-12-11T09:42:18.486Z,998.30
2022-12-11T09:43:18.778Z,998.31
2022-12-11T09:44:18.599Z,998.31
2022-12-11T09:45:18.465Z,998.31
2022-12-11T09:46:18.440Z,998.30
2022-12-11T09:47:18.445Z,998.30
2022-12-11T09:48:18.425Z,998.30
2022-12-11T09:49:18.407Z,998.29
2022-12-11T09:50:18.540Z,998.28
2022-12-11T09:51:18.384Z,998.27
2022-12-11T09:52:18.357Z,998.27
2022-12-11T09:53:18.381Z,998.27
2022-12-11T09:54:18.329Z,998.28
2022-12-11T09:55:18.373Z,998.29
2022-12-11T09:56:18.443Z,998.29
2022-12-11T09:57:18.548Z,998.29
2022-12-11T10:08:54.800Z,998.21
2022-12-11T10:12:12.596Z,998.22
2022-12-11T10:13:13.594Z,998.23
2022-12-11T10:14:13.611Z,998.24
2022-12-11T10:15:13.892Z,998.25
2022-12-11T10:16:13.602Z,998.25
2022-12-11T10:17:13.541Z,998.26
2022-12-11T10:18:13.606Z,998.26
2022-12-11T10:19:14.206Z,998.26
2022-12-11T10:20:13.513Z,998.25
2022-12-11T10:21:13.471Z,998.25
2022-12-11T10:22:13.481Z,998.24
2022-12-11T10:23:13.448Z,998.23
2022-12-11T10:24:24.389Z,998.22
2022-12-11T10:25:13.477Z,998.21
2022-12-11T10:26:13.429Z,998.21
2022-12-11T10:27:13.434Z,998.21
2022-12-11T10:28:13.397Z,998.20
2022-12-11T10:29:13.421Z,998.20
2022-12-11T10:30:13.384Z,998.21
2022-12-11T10:31:13.477Z,998.21
2022-12-11T10:32:13.446Z,998.21
2022-12-11T10:33:13.359Z,998.21
2022-12-11T10:34:13.353Z,998.20
2022-12-11T10:35:13.611Z,998.19
2022-12-11T10:36:13.342Z,998.18
2022-12-11T10:37:13.331Z,998.17
2022-12-11T10:38:13.296Z,998.16
2022-12-11T10:39:13.288Z,998.16
2022-12-11T10:40:13.268Z,998.15
2022-12-11T10:41:13.280Z,998.14
2022-12-11T10:42:13.265Z,998.14
2022-12-11T10:43:13.251Z,998.13
2022-12-11T10:44:13.282Z,998.13
2022-12-11T10:45:13.510Z,998.12
2022-12-11T10:46:13.243Z,998.11
2022-12-11T10:47:13.249Z,998.10
2022-12-11T10:48:13.187Z,998.11
2022-12-11T10:49:13.201Z,998.12
2022-12-11T10:50:13.177Z,998.13
2022-12-11T10:51:13.201Z,998.13
2022-12-11T10:52:13.181Z,998.13
2022-12-11T10:53:13.158Z,998.13
2022-12-11T10:54:13.194Z,998.13
2022-12-11T10:55:13.365Z,998.12
2022-12-11T10:56:13.124Z,998.11
2022-12-11T10:57:13.124Z,998.11
2022-12-11T10:58:13.079Z,998.10
2022-12-11T10:59:13.132Z,998.10
2022-12-11T11:00:13.249Z,998.10
2022-12-11T11:01:13.116Z,998.10
2022-12-11T11:02:13.061Z,998.09
2022-12-11T11:03:13.110Z,998.08
2022-12-11T11:04:13.059Z,998.09
2022-12-11T11:05:13.281Z,998.09
2022-12-11T11:06:13.037Z,998.09
2022-12-11T11:07:13.042Z,998.09
2022-12-11T11:08:13.036Z,998.09
2022-12-11T11:09:13.025Z,998.09
2022-12-11T11:10:12.983Z,998.09
2022-12-11T11:11:12.992Z,998.09
2022-12-11T11:12:12.967Z,998.08
2022-12-11T11:13:13.096Z,998.06
2022-12-11T11:14:12.938Z,998.05
2022-12-11T11:15:13.345Z,998.04
2022-12-11T11:16:12.984Z,998.03
2022-12-11T11:17:12.906Z,998.02
2022-12-11T11:18:12.887Z,998.01
2022-12-11T11:19:12.909Z,998.01
2022-12-11T11:20:12.861Z,998.01
2022-12-11T11:21:12.892Z,998.00
2022-12-11T11:22:12.900Z,997.99
2022-12-11T11:23:12.853Z,997.98
2022-12-11T11:24:12.834Z,997.98
2022-12-11T11:25:13.188Z,997.96
2022-12-11T11:26:12.865Z,997.96
2022-12-11T11:27:13.838Z,997.95
2022-12-11T11:28:12.795Z,997.94
2022-12-11T11:29:12.791Z,997.93
2022-12-11T11:30:12.781Z,997.92
2022-12-11T11:31:12.866Z,997.92
2022-12-11T11:32:12.762Z,997.91
2022-12-11T11:33:12.785Z,997.91
2022-12-11T11:34:12.774Z,997.91
2022-12-11T11:35:13.114Z,997.91
2022-12-11T11:36:12.699Z,997.91
2022-12-11T11:37:12.720Z,997.91
2022-12-11T11:38:12.685Z,997.91
2022-12-11T11:39:12.738Z,997.90
2022-12-11T11:40:12.661Z,997.90
2022-12-11T11:41:15.081Z,997.90
2022-12-11T11:42:12.655Z,997.89
2022-12-11T11:43:12.642Z,997.88
2022-12-11T11:44:12.626Z,997.87
2022-12-11T11:45:13.104Z,997.85
2022-12-11T11:46:12.656Z,997.84
2022-12-11T11:47:12.618Z,997.83
2022-12-11T11:48:12.616Z,997.82
2022-12-11T11:49:12.587Z,997.81
2022-12-11T11:50:12.602Z,997.80
2022-12-11T11:51:12.591Z,997.79
2022-12-11T11:52:13.113Z,997.78
2022-12-11T11:59:16.264Z,997.83
2022-12-11T12:00:17.021Z,997.83
2022-12-11T12:01:17.224Z,997.83
2022-12-11T12:02:16.974Z,997.83
2022-12-11T12:03:16.978Z,997.83
2022-12-11T12:04:16.999Z,997.82
2022-12-11T12:05:16.965Z,997.81
2022-12-11T12:06:16.951Z,997.82
2022-12-11T12:07:16.942Z,997.81
2022-12-11T12:08:16.997Z,997.82
2022-12-11T12:09:16.932Z,997.82
2022-12-11T12:10:16.950Z,997.83
2022-12-11T12:11:16.878Z,997.83
2022-12-11T12:12:22.842Z,997.84
2022-12-11T12:13:44.787Z,997.87
2022-12-11T12:14:50.466Z,997.87
2022-12-11T12:15:16.876Z,997.87
2022-12-11T12:16:50.432Z,997.87
2022-12-11T12:17:16.951Z,997.86
2022-12-11T12:18:16.902Z,997.86
2022-12-11T12:19:16.874Z,997.85
2022-12-11T12:20:16.822Z,997.83
2022-12-11T12:21:16.963Z,997.83
2022-12-11T12:22:16.782Z,997.83
2022-12-11T12:23:16.845Z,997.83
2022-12-11T12:24:16.759Z,997.82
2022-12-11T12:25:16.768Z,997.80
2022-12-11T12:26:16.759Z,997.79
2022-12-11T12:27:49.972Z,997.78
2022-12-11T12:28:16.730Z,997.76
2022-12-11T12:29:16.729Z,997.75
2022-12-11T12:30:22.024Z,997.74
2022-12-11T12:31:16.748Z,997.71
2022-12-11T12:32:16.704Z,997.71
2022-12-11T12:33:16.691Z,997.70
2022-12-11T12:34:16.690Z,997.70
2022-12-11T12:35:16.698Z,997.70
2022-12-11T12:36:16.663Z,997.71
2022-12-11T12:37:16.657Z,997.71
2022-12-11T12:38:16.635Z,997.71
2022-12-11T12:39:17.481Z,997.71
2022-12-11T12:40:16.597Z,997.71
2022-12-11T12:41:16.800Z,997.71
2022-12-11T12:42:16.605Z,997.69
2022-12-11T12:43:16.560Z,997.68
2022-12-11T12:44:16.661Z,997.67
2022-12-11T12:45:16.546Z,997.65
2022-12-11T12:46:16.591Z,997.65
2022-12-11T12:47:16.730Z,997.65
2022-12-11T12:48:16.533Z,997.66
2022-12-11T12:49:16.498Z,997.67
2022-12-11T12:50:16.511Z,997.70
2022-12-11T12:51:16.473Z,997.72
2022-12-11T12:52:16.548Z,997.74
2022-12-11T12:53:16.475Z,997.76
2022-12-11T12:54:16.464Z,997.75
2022-12-11T12:55:16.446Z,997.76
2022-12-11T12:56:16.440Z,997.75
2022-12-11T12:57:16.425Z,997.75
2022-12-11T12:58:16.435Z,997.73
2022-12-11T12:59:16.390Z,997.71
2022-12-11T13:00:16.411Z,997.70
2022-12-11T13:01:16.422Z,997.68
2022-12-11T13:02:16.487Z,997.66
2022-12-11T13:03:16.387Z,997.64
2022-12-11T13:04:39.390Z,997.62
2022-12-11T13:05:16.343Z,997.62
2022-12-11T13:06:16.356Z,997.62
2022-12-11T13:07:16.333Z,997.61
2022-12-11T13:08:16.365Z,997.61
2022-12-11T13:09:16.308Z,997.60
2022-12-11T13:10:16.291Z,997.59
2022-12-11T13:11:16.280Z,997.59
2022-12-11T13:12:16.275Z,997.58
2022-12-11T13:13:16.264Z,997.57
2022-12-11T13:14:16.266Z,997.57
2022-12-11T13:15:16.244Z,997.57
2022-12-11T13:16:16.305Z,997.57
2022-12-11T13:17:16.215Z,997.58
2022-12-11T13:18:16.217Z,997.58
2022-12-11T13:19:16.198Z,997.58
2022-12-11T13:20:16.197Z,997.58
2022-12-11T13:21:16.177Z,997.58
2022-12-11T13:22:16.173Z,997.58
2022-12-11T13:23:16.157Z,997.57
2022-12-11T13:24:16.169Z,997.57
2022-12-11T13:25:16.140Z,997.57
2022-12-11T13:26:16.135Z,997.57
2022-12-11T13:27:16.109Z,997.57
2022-12-11T13:28:16.107Z,997.58
2022-12-11T13:29:16.121Z,997.59
2022-12-11T13:30:16.104Z,997.58
2022-12-11T13:31:16.205Z,997.60
2022-12-11T13:32:16.066Z,997.61
2022-12-11T13:33:16.053Z,997.61
2022-12-11T13:34:16.054Z,997.62
2022-12-11T13:35:16.041Z,997.62
2022-12-11T13:38:45.437Z,997.63
2022-12-11T13:39:46.417Z,997.63
2022-12-11T13:40:46.447Z,997.63
2022-12-11T13:41:46.403Z,997.64
2022-12-11T13:42:46.382Z,997.66
2022-12-11T13:43:46.411Z,997.67
2022-12-11T13:44:46.426Z,997.68
2022-12-11T13:51:35.011Z,997.70
2022-12-11T13:52:35.954Z,997.69
2022-12-11T13:53:35.933Z,997.70
2022-12-11T13:54:35.932Z,997.70
2022-12-11T13:55:35.938Z,997.70
2022-12-11T13:56:35.910Z,997.71
2022-12-11T13:57:35.896Z,997.71
2022-12-11T13:58:35.931Z,997.70
2022-12-11T13:59:35.878Z,997.70
2022-12-11T14:00:35.871Z,997.70
2022-12-11T14:01:35.853Z,997.70
2022-12-11T14:02:35.896Z,997.69
2022-12-11T14:03:36.787Z,997.70
2022-12-11T14:04:35.821Z,997.69
2022-12-11T14:05:35.838Z,997.70
2022-12-11T14:06:35.816Z,997.70
2022-12-11T14:07:35.802Z,997.70
2022-12-11T14:08:35.838Z,997.70
2022-12-11T14:09:35.769Z,997.71
2022-12-11T14:10:35.740Z,997.71
2022-12-11T14:11:35.745Z,997.72
2022-12-11T14:12:35.825Z,997.73
2022-12-11T14:13:35.766Z,997.73
2022-12-11T14:14:35.732Z,997.73
2022-12-11T14:15:35.728Z,997.74
2022-12-11T14:16:35.849Z,997.74
2022-12-11T14:17:35.683Z,997.75
2022-12-11T14:18:35.684Z,997.76
2022-12-11T14:19:35.683Z,997.77
2022-12-11T14:20:35.715Z,997.77
2022-12-11T14:21:35.651Z,997.79
2022-12-11T14:22:35.667Z,997.79
2022-12-11T14:23:35.631Z,997.80
2022-12-11T14:24:35.631Z,997.81
2022-12-11T14:25:35.625Z,997.82
2022-12-11T14:26:35.614Z,997.82
2022-12-11T14:27:35.599Z,997.82
2022-12-11T14:28:35.573Z,997.82
2022-12-11T14:29:35.578Z,997.82
2022-12-11T14:30:35.557Z,997.81
2022-12-11T14:31:35.626Z,997.82
2022-12-11T14:32:35.568Z,997.82
2022-12-11T14:33:35.518Z,997.82
2022-12-11T14:34:35.517Z,997.81
2022-12-11T14:35:39.133Z,997.80
2022-12-11T14:36:35.490Z,997.79
2022-12-11T14:37:35.516Z,997.79
2022-12-11T14:38:35.474Z,997.79
2022-12-11T14:39:35.463Z,997.79
2022-12-11T14:40:35.460Z,997.79
2022-12-11T14:41:35.527Z,997.80
2022-12-11T14:42:35.445Z,997.81
2022-12-11T14:43:35.454Z,997.82
2022-12-11T14:44:35.404Z,997.83
2022-12-11T14:45:35.780Z,997.84
2022-12-11T14:46:41.993Z,997.84
2022-12-11T14:47:35.367Z,997.85
2022-12-11T14:48:35.378Z,997.87
2022-12-11T14:49:35.360Z,997.87
2022-12-11T14:50:35.365Z,997.88
2022-12-11T14:51:35.353Z,997.89
2022-12-11T14:52:35.360Z,997.89
2022-12-11T14:53:35.362Z,997.89
2022-12-11T14:59:17.222Z,997.86
2022-12-11T15:00:18.189Z,997.85
2022-12-11T15:01:19.181Z,997.84
2022-12-11T15:02:18.325Z,997.84
2022-12-11T15:03:18.181Z,997.84
2022-12-11T15:07:20.152Z,997.85
2022-12-11T15:08:21.211Z,997.85
2022-12-11T15:09:21.121Z,997.86
2022-12-11T15:10:21.092Z,997.87
2022-12-11T15:11:21.101Z,997.88
2022-12-11T15:12:21.104Z,997.89
2022-12-11T15:13:21.089Z,997.88
2022-12-11T15:14:21.063Z,997.87
2022-12-11T15:15:21.042Z,997.86
2022-12-11T15:16:21.119Z,997.86
2022-12-11T15:17:21.096Z,997.86
2022-12-11T15:18:21.008Z,997.85
2022-12-11T15:19:20.999Z,997.86
2022-12-11T15:20:21.073Z,997.86
2022-12-11T15:21:20.984Z,997.85
2022-12-11T15:22:20.958Z,997.86
2022-12-11T15:23:21.040Z,997.86
2022-12-11T15:24:20.951Z,997.86
2022-12-11T15:25:21.057Z,997.87
2022-12-11T15:26:20.947Z,997.87
2022-12-11T15:27:20.927Z,997.88
2022-12-11T15:28:20.931Z,997.89
2022-12-11T15:29:20.920Z,997.89
2022-12-11T15:30:20.880Z,997.89
2022-12-11T15:31:20.901Z,997.90
2022-12-11T15:32:20.888Z,997.91
2022-12-11T15:33:20.892Z,997.92
2022-12-11T15:34:20.847Z,997.93
2022-12-11T15:35:20.863Z,997.94
2022-12-11T15:36:20.874Z,997.94
2022-12-11T15:37:20.932Z,997.94
2022-12-11T15:38:20.911Z,997.94
2022-12-11T15:39:20.852Z,997.95
2022-12-11T15:40:20.792Z,997.95
2022-12-11T15:41:20.860Z,997.96
2022-12-11T15:42:20.792Z,997.96
2022-12-11T15:46:02.823Z,997.98
2022-12-11T15:47:03.709Z,997.98
2022-12-11T15:48:03.743Z,997.97
2022-12-11T15:49:03.733Z,997.96
2022-12-11T15:50:03.993Z,997.95
2022-12-11T15:51:03.716Z,997.95
2022-12-11T15:52:03.697Z,997.95
2022-12-11T15:53:03.662Z,997.96
2022-12-11T15:54:03.778Z,997.97
2022-12-11T15:55:03.631Z,997.97
2022-12-11T15:56:03.643Z,997.97
2022-12-11T15:57:03.797Z,997.97
2022-12-11T15:58:03.716Z,997.97
2022-12-11T15:59:03.702Z,997.97
2022-12-11T16:00:03.678Z,997.98
2022-12-11T16:01:03.633Z,997.99
2022-12-11T16:02:03.599Z,997.99
2022-12-11T16:03:03.548Z,997.98
2022-12-11T16:04:05.302Z,997.97
2022-12-11T16:05:03.543Z,997.97
2022-12-11T16:06:03.538Z,997.96
2022-12-11T16:07:03.531Z,997.96
2022-12-11T16:08:03.624Z,997.96
2022-12-11T16:09:03.495Z,997.95
2022-12-11T16:10:03.483Z,997.95
2022-12-11T16:11:03.502Z,997.95
2022-12-11T16:12:03.476Z,997.95
2022-12-11T16:13:03.482Z,997.95
2022-12-11T16:14:03.505Z,997.95
2022-12-11T16:15:03.451Z,997.96
2022-12-11T16:16:03.528Z,997.97
2022-12-11T16:17:03.444Z,997.97
2022-12-11T16:18:03.398Z,997.97
2022-12-11T16:19:03.391Z,997.96
2022-12-11T16:20:03.387Z,997.97
2022-12-11T16:21:04.391Z,997.97
2022-12-11T16:22:03.406Z,997.98
2022-12-11T16:23:03.355Z,997.98
2022-12-11T16:24:03.362Z,997.97
2022-12-11T16:25:03.328Z,997.96
2022-12-11T16:26:03.312Z,997.95
2022-12-11T16:27:03.316Z,997.95
2022-12-11T16:28:03.296Z,997.95
2022-12-11T16:29:03.280Z,997.94
2022-12-11T16:30:03.311Z,997.92
2022-12-11T16:31:03.392Z,997.91
2022-12-11T16:32:03.251Z,997.90
2022-12-11T16:33:08.586Z,997.91
2022-12-11T16:34:03.238Z,997.91
2022-12-11T16:35:03.356Z,997.91
2022-12-11T16:36:03.237Z,997.91
2022-12-11T16:37:03.216Z,997.92
2022-12-11T16:38:03.212Z,997.93
2022-12-11T16:39:03.175Z,997.95
2022-12-11T16:40:03.195Z,997.97
2022-12-11T16:41:03.195Z,997.99
2022-12-11T16:42:03.182Z,998.01
2022-12-11T16:43:03.173Z,998.03
2022-12-11T16:44:03.177Z,998.04
2022-12-11T16:45:03.062Z,998.05
2022-12-11T16:46:03.166Z,998.06
2022-12-11T16:47:03.109Z,998.06
2022-12-11T16:48:03.091Z,998.05
2022-12-11T16:49:03.066Z,998.05
2022-12-11T16:50:03.061Z,998.05
2022-12-11T16:51:03.106Z,998.04
2022-12-11T16:52:03.047Z,998.04
2022-12-11T16:53:03.029Z,998.03
2022-12-11T16:54:03.021Z,998.02
2022-12-11T16:55:03.007Z,998.02
2022-12-11T16:56:03.012Z,998.01
2022-12-11T16:57:02.982Z,998.00
2022-12-11T16:58:03.002Z,998.00
2022-12-11T16:59:02.968Z,998.00
2022-12-11T17:00:02.975Z,997.99
2022-12-11T17:01:03.093Z,997.98
2022-12-11T17:02:02.941Z,997.98
2022-12-11T17:03:02.982Z,997.98
2022-12-11T17:04:02.929Z,997.98
2022-12-11T17:05:02.895Z,997.98
2022-12-11T17:06:02.905Z,997.98
2022-12-11T17:07:02.924Z,997.97
2022-12-11T17:08:02.927Z,997.96
2022-12-11T17:09:02.832Z,997.96
2022-12-11T17:10:02.858Z,997.96
2022-12-11T17:11:03.046Z,997.95
2022-12-11T17:12:11.900Z,997.95
2022-12-11T17:13:02.797Z,997.94
2022-12-11T17:14:02.916Z,997.93
2022-12-11T17:15:02.850Z,997.92
2022-12-11T17:16:02.873Z,997.92
2022-12-11T17:17:02.820Z,997.92
2022-12-11T17:18:02.804Z,997.93
2022-12-11T17:19:02.777Z,997.94
2022-12-11T17:20:02.763Z,997.95
2022-12-11T17:21:02.739Z,997.96
2022-12-11T17:22:02.733Z,997.97
2022-12-11T17:23:02.774Z,997.97
2022-12-11T17:25:27.164Z,997.99
2022-12-11T17:26:28.119Z,998.00
2022-12-11T17:30:57.753Z,998.03
2022-12-11T17:31:58.462Z,998.05
2022-12-11T17:32:58.472Z,998.05
2022-12-11T17:33:58.451Z,998.06
2022-12-11T17:34:58.421Z,998.06
2022-12-11T17:35:58.406Z,998.05
2022-12-11T17:36:58.397Z,998.05
2022-12-11T17:37:58.373Z,998.05
2022-12-11T17:38:58.375Z,998.05
2022-12-11T17:39:58.343Z,998.05
2022-12-11T17:40:58.358Z,998.04
2022-12-11T17:41:58.328Z,998.03
2022-12-11T17:42:58.633Z,998.03
2022-12-11T17:43:58.447Z,998.02
2022-12-11T17:44:58.355Z,998.02
2022-12-11T17:45:58.298Z,998.03
2022-12-11T17:46:58.344Z,998.02
2022-12-11T17:47:58.285Z,998.01
2022-12-11T17:57:42.428Z,998.00
2022-12-11T17:58:43.004Z,997.99
2022-12-11T17:59:43.622Z,997.98
2022-12-11T18:00:43.330Z,997.97
2022-12-11T18:01:43.147Z,997.97
2022-12-11T18:02:43.974Z,997.97
2022-12-11T18:03:45.727Z,997.96
2022-12-11T18:04:47.121Z,997.94
2022-12-11T18:05:45.987Z,997.93
2022-12-11T18:06:43.065Z,997.92
2022-12-11T18:07:44.502Z,997.92
2022-12-11T18:08:54.410Z,997.92
2022-12-11T18:09:44.054Z,997.92
2022-12-11T18:10:42.851Z,997.92
2022-12-11T18:51:03.845Z,998.00
2022-12-11T21:12:48.926Z,998.03
2022-12-11T21:13:50.331Z,998.03
2022-12-11T22:52:11.632Z,998.22
2022-12-11T22:53:12.558Z,998.21
2022-12-11T23:00:32.677Z,998.14
